Dixie, Idaho
Current Conditions -  °F | °C
As of 8:55 AM on Sunday 23 Nov 2014 (Local Time) from KGIC Reporting Station
Scattered Clouds Scattered Clouds  
Wind Chill: 26°   Ceiling: Unl
Heat Index: 37°   Visibility: 10mi
Dew Point: 27°   Wind: 21mph
Humidity: 68%   Direction: 220°SW
Pressure: 30.2"   Gusts: 28mph
Location:  45.8865°N, 115.105°W
Report Text: KGIC 231555Z AUTO 22018G24KT 10SM SCT120 03/M03 A3020 RMK AO1 T00251028
Loading
Personal Weather Stations






























Interactive Weather Map New forecast layout! Learn more

10-Day Weather Forecast

Advertisements
Track Severe Weather on mobile